Time;durP1;ratioP1;P1;durP2;ratioP2;P2;SDS_P1;SDS_P2;PMS_P1;PMS_P2;Temp;Humidity;BMP_temperature;BMP_pressure;BME280_temperature;BME280_humidity;BME280_pressure;Samples;Min_cycle;Max_cycle;Signal;HPM_P1;HPM_P2
2022/05/20 00:01:17;;;;;;;374.60;357.65;;;;;;;19.04;100.00;101275.75;4895456;29;20234;-60
2022/05/20 00:03:45;;;;;;;347.67;331.70;;;19.40;99.90;;;19.24;100.00;101293.41;4908320;29;20205;-61
2022/05/20 00:06:13;;;;;;;316.67;302.27;;;;;;;19.17;100.00;101303.31;4886712;29;20216;-62
2022/05/20 00:08:42;;;;;;;291.10;277.95;;;;;;;19.14;100.00;101298.00;4877531;29;20219;-61
2022/05/20 00:11:10;;;;;;;287.15;273.92;;;19.40;99.90;;;19.11;100.00;101296.22;4886498;29;20233;-61
2022/05/20 00:13:38;;;;;;;277.15;264.05;;;19.30;99.90;;;18.88;100.00;101308.13;4873896;29;20213;-61
2022/05/20 00:16:06;;;;;;;253.05;241.85;;;19.20;99.90;;;18.85;100.00;101323.34;4889223;29;20216;-61
2022/05/20 00:18:34;;;;;;;265.52;254.23;;;19.20;99.90;;;19.00;100.00;101324.06;4887731;29;20216;-59
2022/05/20 00:21:01;;;;;;;251.68;240.00;;;19.20;99.90;;;19.18;100.00;101331.91;4886460;29;20229;-61
2022/05/20 00:23:29;;;;;;;265.08;252.65;;;19.30;99.90;;;19.21;100.00;101317.56;4857567;29;20240;-60
2022/05/20 00:25:58;;;;;;;238.75;227.95;;;19.30;99.90;;;19.00;100.00;101322.28;4874934;29;20200;-59
2022/05/20 00:28:28;;;;;;;233.90;223.40;;;19.20;99.90;;;19.11;100.00;101323.03;4888970;29;20204;-61
2022/05/20 00:31:04;;;;;;;224.95;214.77;;;19.30;99.90;;;19.19;100.00;101314.91;4881802;29;20254;-61
2022/05/20 00:33:35;;;;;;;220.25;210.50;;;19.30;99.90;;;18.97;100.00;101319.63;4888146;29;20205;-58
2022/05/20 00:36:05;;;;;;;223.65;213.63;;;19.10;99.90;;;18.74;100.00;101332.41;4891225;29;20566;-61
2022/05/20 00:38:33;;;;;;;224.70;214.23;;;19.10;99.90;;;18.87;100.00;101331.38;4884287;29;20212;-60
2022/05/20 00:41:01;;;;;;;246.48;235.07;;;19.10;99.90;;;18.79;100.00;101338.59;4861072;29;20229;-61
2022/05/20 00:43:39;;;;;;;267.45;255.02;;;19.00;99.90;;;18.72;100.00;101342.25;4872405;29;20220;-61
2022/05/20 00:46:11;;;;;;;257.33;245.50;;;19.00;99.90;;;18.91;100.00;101369.75;4902459;29;20238;-60
2022/05/20 00:48:41;;;;;;;251.20;240.05;;;19.00;99.90;;;18.95;100.00;101352.72;4889575;29;20217;-61
2022/05/20 00:51:12;;;;;;;260.75;249.40;;;19.10;99.90;;;18.97;100.00;101370.56;4873600;29;20235;-62
2022/05/20 00:54:03;;;;;;;284.95;271.30;;;19.00;99.90;;;18.84;100.00;101358.19;4888075;29;20233;-61
2022/05/20 00:56:39;;;;;;;281.25;268.65;;;19.00;99.90;;;18.87;100.00;101358.16;4887809;29;20211;-58
2022/05/20 00:59:11;;;;;;;278.35;266.08;;;19.10;99.90;;;18.85;100.00;101362.66;4880234;29;20232;-60
2022/05/20 01:01:40;;;;;;;296.67;283.50;;;19.00;99.90;;;18.75;100.00;101369.00;4884446;29;20213;-61
2022/05/20 01:04:08;;;;;;;305.30;292.10;;;19.00;99.90;;;18.81;100.00;101385.91;4887526;29;20252;-61
2022/05/20 01:06:37;;;;;;;284.83;272.00;;;;;;;18.80;100.00;101386.81;4905460;29;20212;-62
2022/05/20 01:09:05;;;;;;;296.35;282.80;;;19.00;99.90;;;18.96;100.00;101384.88;4871593;29;20588;-61
2022/05/20 01:11:35;;;;;;;307.75;293.38;;;19.10;99.90;;;19.10;100.00;101371.31;4906698;29;20238;-62
2022/05/20 01:14:04;;;;;;;281.92;269.45;;;19.10;99.90;;;19.14;100.00;101370.38;4874991;29;20217;-60
2022/05/20 01:16:33;;;;;;;310.17;295.80;;;19.10;99.90;;;19.15;100.00;101362.31;4876106;29;20208;-61
2022/05/20 01:19:01;;;;;;;319.90;304.90;;;19.20;99.90;;;19.14;100.00;101371.28;4871602;29;20212;-61
2022/05/20 01:21:29;;;;;;;326.95;312.20;;;19.20;99.90;;;19.08;100.00;101365.97;4877812;29;20221;-59
2022/05/20 01:24:03;;;;;;;315.48;301.63;;;19.20;99.90;;;18.92;100.00;101371.53;4895047;29;20220;-61
2022/05/20 01:26:31;;;;;;;300.58;287.70;;;19.00;99.90;;;18.89;100.00;101398.34;4871752;29;20209;-59
2022/05/20 01:28:59;;;;;;;311.85;298.08;;;;;;;18.97;100.00;101412.56;4888225;29;20568;-59
2022/05/20 01:31:27;;;;;;;305.63;292.38;;;;;;;19.01;100.00;101408.97;4903237;29;20231;-61
2022/05/20 01:33:55;;;;;;;339.10;323.65;;;19.00;99.90;;;19.04;100.00;101420.53;4880738;29;20212;-60
2022/05/20 01:36:26;;;;;;;348.88;332.77;;;19.00;99.90;;;19.01;100.00;101415.22;4880916;29;20219;-61
2022/05/20 01:38:55;;;;;;;353.05;336.52;;;18.90;99.90;;;18.96;100.00;101419.72;4902730;29;20205;-59
2022/05/20 01:41:52;;;;;;;374.50;357.15;;;19.00;99.90;;;19.02;100.00;101403.56;4888928;29;20217;-59
2022/05/20 01:44:38;;;;;;;341.13;325.67;;;19.00;99.90;;;18.99;100.00;101386.63;4869452;29;20221;-61
2022/05/20 01:47:15;;;;;;;344.92;329.10;;;19.00;99.90;;;18.95;100.00;101400.97;4884000;29;20216;-61
2022/05/20 01:50:09;;;;;;;305.02;290.77;;;19.00;99.90;;;18.82;100.00;101408.25;4885740;29;20227;-61
2022/05/20 01:53:03;;;;;;;296.48;282.65;;;19.00;99.90;;;18.85;100.00;101409.09;4902360;29;20205;-61
2022/05/20 01:55:50;;;;;;;318.25;303.67;;;18.90;99.90;;;18.86;100.00;101426.06;4889214;29;20705;-61
2022/05/20 01:58:44;;;;;;;329.85;314.80;;;18.90;99.90;;;18.81;100.00;101427.91;4902079;29;20211;-61
2022/05/20 02:01:27;;;;;;;326.10;311.15;;;18.80;99.90;;;18.86;100.00;101426.97;4885358;29;20215;-60
2022/05/20 02:04:05;;;;;;;338.65;323.25;;;18.80;99.90;;;18.89;100.00;101427.84;4899913;29;20215;-59
2022/05/20 02:06:41;;;;;;;333.65;318.55;;;18.90;99.90;;;19.02;100.00;101416.09;4899950;29;20208;-61
2022/05/20 02:09:26;;;;;;;363.17;346.70;;;18.90;99.90;;;18.96;100.00;101405.44;4871168;29;20243;-59
2022/05/20 02:11:55;;;;;;;357.10;341.33;;;18.80;99.90;;;18.93;100.00;101406.34;4902900;29;20235;-61
2022/05/20 02:14:43;;;;;;;364.45;346.95;;;18.90;99.90;;;18.86;100.00;101416.25;4897325;29;20596;-61
2022/05/20 02:17:24;;;;;;;366.67;349.63;;;18.80;99.90;;;18.86;100.00;101426.06;4858023;29;20208;-59
2022/05/20 02:20:04;;;;;;;347.10;331.42;;;18.80;99.90;;;18.79;100.00;101440.44;4885174;29;20705;-62
2022/05/20 02:22:47;;;;;;;327.63;313.08;;;18.80;99.90;;;18.75;100.00;101458.34;4879892;29;20205;-61
2022/05/20 02:25:22;;;;;;;323.92;308.90;;;18.80;99.90;;;18.68;100.00;101461.06;4891563;29;20208;-58
2022/05/20 02:27:56;;;;;;;325.10;310.58;;;18.70;99.90;;;18.74;100.00;101451.19;4898054;29;20220;-59
2022/05/20 02:30:31;;;;;;;327.45;313.10;;;18.70;99.90;;;18.71;100.00;101450.34;4881900;29;20235;-61
2022/05/20 02:33:14;;;;;;;335.55;320.17;;;18.70;99.90;;;18.70;100.00;101438.72;4872721;29;20228;-61
2022/05/20 02:35:42;;;;;;;340.52;325.00;;;18.70;99.90;;;18.70;100.00;101443.19;4889220;29;20583;-59
2022/05/20 02:38:16;;;;;;;330.92;315.80;;;18.70;99.90;;;18.77;100.00;101447.59;4902295;29;20692;-58
2022/05/20 02:40:50;;;;;;;331.33;316.42;;;18.70;99.90;;;18.77;100.00;101428.84;4877751;29;20239;-60
2022/05/20 02:43:20;;;;;;;331.55;316.75;;;18.70;99.90;;;18.68;100.00;101418.19;4895348;29;20684;-61
2022/05/20 02:45:51;;;;;;;347.73;332.10;;;18.70;99.90;;;18.73;100.00;101437.81;4905630;29;20216;-61
2022/05/20 02:48:21;;;;;;;349.38;332.98;;;18.70;99.90;;;18.73;100.00;101424.41;4878064;29;20219;-59
2022/05/20 02:50:49;;;;;;;336.17;321.15;;;18.70;99.90;;;18.67;100.00;101430.72;4880987;29;20240;-60
2022/05/20 02:53:18;;;;;;;321.63;307.40;;;18.70;99.90;;;18.58;100.00;101427.19;4889458;29;20697;-61
2022/05/20 02:55:47;;;;;;;324.23;309.60;;;18.70;99.90;;;18.61;100.00;101443.22;4877702;29;20220;-62
2022/05/20 03:04:10;;;;;;;321.73;307.17;;;18.60;99.90;;;18.51;100.00;101421.88;4867651;29;20205;-61
2022/05/20 03:06:44;;;;;;;321.25;306.42;;;18.60;99.90;;;18.44;100.00;101432.66;4864487;29;20212;-59
2022/05/20 03:09:14;;;;;;;346.83;330.38;;;18.50;99.90;;;18.39;100.00;101442.50;4875071;29;20613;-58
2022/05/20 03:11:43;;;;;;;329.65;314.52;;;18.40;99.90;;;18.38;100.00;101446.09;4876908;29;20217;-60
2022/05/20 03:14:13;;;;;;;350.05;334.73;;;18.50;99.90;;;18.41;100.00;101448.75;4870998;29;20208;-58
2022/05/20 03:16:42;;;;;;;329.88;314.88;;;;;;;18.40;100.00;101449.66;4875663;29;20220;-61
2022/05/20 03:19:10;;;;;;;348.55;332.75;;;18.50;99.90;;;18.35;100.00;101441.66;4902950;29;20608;-61
2022/05/20 03:21:39;;;;;;;347.63;331.55;;;18.40;99.90;;;18.26;100.00;101433.66;4859796;29;20595;-61
2022/05/20 03:24:08;;;;;;;358.15;341.88;;;18.40;99.90;;;18.31;100.00;101434.53;4877261;29;20211;-61
2022/05/20 03:26:37;;;;;;;352.33;336.70;;;18.40;99.90;;;18.39;100.00;101427.31;4907756;29;20216;-60
2022/05/20 03:29:06;;;;;;;337.17;322.10;;;18.20;99.90;;;18.29;100.00;101419.38;4867732;29;20233;-59
2022/05/20 03:31:37;;;;;;;362.45;346.08;;;18.40;99.90;;;18.24;100.00;101427.44;4873268;29;20665;-60
2022/05/20 03:34:06;;;;;;;363.52;346.80;;;18.40;99.90;;;18.23;100.00;101415.84;4905332;29;20582;-61
2022/05/20 03:36:41;;;;;;;365.33;348.85;;;18.40;99.90;;;18.23;100.00;101417.63;4874470;29;20212;-61
2022/05/20 03:39:13;;;;;;;351.38;335.77;;;18.30;99.90;;;18.17;100.00;101434.59;4884774;29;20235;-61
2022/05/20 03:41:41;;;;;;;348.27;332.65;;;18.20;99.90;;;18.19;100.00;101423.88;4862608;29;20720;-58
2022/05/20 03:44:12;;;;;;;332.33;317.73;;;18.20;99.90;;;18.17;100.00;101418.53;4873248;29;20213;-61
2022/05/20 03:46:59;;;;;;;343.38;328.15;;;18.20;99.90;;;18.16;100.00;101432.81;4864600;29;20220;-62
2022/05/20 03:49:28;;;;;;;366.27;349.85;;;18.10;99.90;;;18.09;100.00;101420.34;4884149;29;20248;-60
2022/05/20 03:51:58;;;;;;;346.02;331.05;;;18.10;99.90;;;18.07;100.00;101432.88;4875030;29;20223;-59
2022/05/20 03:54:31;;;;;;;340.67;326.08;;;18.10;99.90;;;18.09;100.00;101435.53;4899741;29;20220;-60
2022/05/20 03:57:02;;;;;;;332.80;318.33;;;18.20;99.90;;;18.13;100.00;101448.88;4863342;29;20221;-61
2022/05/20 03:59:33;;;;;;;328.48;314.38;;;18.10;99.90;;;18.02;100.00;101434.69;4884085;29;20228;-60
2022/05/20 04:02:06;;;;;;;325.73;310.13;;;18.10;99.90;;;17.94;100.00;101444.53;4845675;29;20224;-61
2022/05/20 04:04:41;;;;;;;306.75;293.15;;;18.00;99.90;;;18.12;100.00;101454.25;4874331;29;20221;-61
2022/05/20 04:07:17;;;;;;;311.90;297.65;;;18.10;99.90;;;18.14;100.00;101461.38;4887260;29;20208;-60
2022/05/20 04:09:45;;;;;;;297.02;284.30;;;18.10;99.90;;;18.14;100.00;101448.00;4900346;29;20749;-60
2022/05/20 04:12:32;;;;;;;301.98;287.80;;;18.10;99.90;;;18.17;100.00;101461.34;4891955;29;20212;-62
2022/05/20 04:15:02;;;;;;;292.63;279.40;;;18.10;99.90;;;18.24;100.00;101438.16;4876247;29;20291;-61
2022/05/20 04:17:31;;;;;;;296.92;284.27;;;18.10;99.90;;;18.19;100.00;101431.91;4877262;29;20220;-58
2022/05/20 04:20:00;;;;;;;300.90;287.50;;;18.10;99.90;;;18.23;100.00;101428.34;4877152;29;20255;-61
2022/05/20 04:22:36;;;;;;;305.83;292.45;;;18.10;99.90;;;18.18;100.00;101439.03;4871407;29;20229;-61
2022/05/20 04:25:05;;;;;;;302.20;288.40;;;18.10;99.90;;;18.22;100.00;101438.16;4894465;29;20204;-61
2022/05/20 04:27:37;;;;;;;307.15;293.65;;;;;;;18.28;100.00;101434.53;4884733;29;20212;-61
2022/05/20 04:30:06;;;;;;;323.88;309.35;;;18.20;99.90;;;18.34;100.00;101421.13;4892080;29;20229;-60
2022/05/20 04:32:35;;;;;;;303.77;290.45;;;;;;;18.39;100.00;101430.00;4893195;29;20212;-61
2022/05/20 04:35:03;;;;;;;308.02;294.70;;;18.30;99.90;;;18.37;100.00;101431.81;4892425;29;20224;-59
2022/05/20 04:37:31;;;;;;;317.17;303.42;;;18.30;99.90;;;18.36;100.00;101437.19;4869792;29;20224;-61
2022/05/20 04:40:00;;;;;;;328.10;313.58;;;18.30;99.90;;;18.37;100.00;101441.63;4871229;29;20247;-59
2022/05/20 04:48:03;;;;;;;347.10;331.88;;;18.20;99.90;;;18.32;100.00;101433.63;4898496;29;20207;-60
2022/05/20 04:50:31;;;;;;;328.75;314.05;;;18.10;99.90;;;18.34;100.00;101437.19;4874841;29;20235;-60
2022/05/20 04:53:05;;;;;;;353.70;338.10;;;18.30;99.90;;;18.39;100.00;101439.84;4873254;29;20213;-59
2022/05/20 04:55:33;;;;;;;358.63;342.77;;;18.20;99.90;;;18.35;100.00;101447.00;4875588;29;20209;-58
2022/05/20 04:58:02;;;;;;;344.55;329.05;;;;;;;18.46;100.00;101452.28;4872246;29;20246;-60
2022/05/20 05:00:31;;;;;;;364.33;348.08;;;18.30;99.90;;;18.44;100.00;101443.38;4883660;29;20245;-60
2022/05/20 05:02:59;;;;;;;374.75;357.67;;;;;;;18.40;100.00;101453.22;4858712;29;20228;-59
2022/05/20 05:05:28;;;;;;;358.92;341.95;;;18.20;99.90;;;18.50;100.00;101460.28;4874886;29;20204;-61
2022/05/20 05:07:58;;;;;;;353.27;337.38;;;18.30;99.90;;;18.40;100.00;101468.38;4889257;29;20212;-61
2022/05/20 05:10:30;;;;;;;413.50;394.50;;;18.20;99.90;;;18.32;100.00;101489.88;4857855;29;20240;-61
2022/05/20 05:13:00;;;;;;;400.98;383.17;;;;;;;18.33;100.00;101518.44;4862490;29;20212;-59
2022/05/20 05:15:28;;;;;;;414.42;395.48;;;18.10;99.90;;;18.41;100.00;101515.69;4917470;29;20211;-61
2022/05/20 05:18:16;;;;;;;394.98;377.05;;;18.20;99.90;;;18.45;100.00;101522.81;4882159;29;20216;-59
2022/05/20 05:20:50;;;;;;;400.08;381.50;;;18.40;99.90;;;18.43;100.00;101524.63;4863201;29;20236;-58
2022/05/20 05:23:20;;;;;;;392.85;375.00;;;18.30;99.90;;;18.46;100.00;101530.84;4883267;29;20232;-58
2022/05/20 05:25:48;;;;;;;397.95;379.42;;;18.30;99.90;;;18.43;100.00;101528.19;4860698;29;20221;-60
2022/05/20 05:28:17;;;;;;;386.92;368.92;;;18.30;99.90;;;18.41;100.00;101534.44;4887802;29;20224;-61
2022/05/20 05:30:47;;;;;;;388.65;370.83;;;18.30;99.90;;;18.37;100.00;101540.72;4885605;29;20716;-61
2022/05/20 05:33:17;;;;;;;387.13;370.15;;;18.20;99.90;;;18.41;100.00;101538.03;4893732;29;20212;-59
2022/05/20 05:35:45;;;;;;;403.85;385.45;;;;;;;18.48;100.00;101539.78;4910829;29;20213;-61
2022/05/20 05:38:13;;;;;;;411.30;392.40;;;;;;;18.49;100.00;101544.22;4910397;29;20653;-61
2022/05/20 05:40:41;;;;;;;407.05;388.65;;;17.20;99.90;;;18.52;100.00;101537.97;4901287;29;20696;-61
2022/05/20 05:43:10;;;;;;;400.33;382.25;;;18.30;99.90;;;18.59;100.00;101545.06;4898693;29;20228;-60
2022/05/20 05:45:38;;;;;;;384.17;366.83;;;18.50;99.90;;;18.62;100.00;101534.34;4877936;29;20401;-60
2022/05/20 05:48:09;;;;;;;394.30;376.42;;;18.50;99.90;;;18.83;100.00;101538.69;4890296;29;20208;-59
2022/05/20 05:50:40;;;;;;;383.65;366.52;;;18.60;99.90;;;18.94;100.00;101531.44;4883863;29;20239;-60
2022/05/20 05:53:16;;;;;;;376.80;359.67;;;18.70;99.90;;;19.00;100.00;101528.72;4899731;29;20212;-61
2022/05/20 05:55:53;;;;;;;359.75;343.50;;;18.80;99.90;;;18.97;100.00;101511.75;4897559;29;20224;-60
2022/05/20 05:58:21;;;;;;;350.90;335.15;;;;;;;19.03;100.00;101512.59;4890892;29;20216;-60
2022/05/20 06:00:49;;;;;;;349.63;333.63;;;18.80;99.90;;;19.26;100.00;101522.22;4892674;29;20709;-60
2022/05/20 06:03:17;;;;;;;348.83;332.60;;;19.00;99.90;;;19.22;100.00;101505.28;4893274;29;20225;-61
2022/05/20 06:05:45;;;;;;;363.13;346.30;;;19.00;99.90;;;19.20;100.00;101480.25;4906055;29;20209;-60
2022/05/20 06:08:16;;;;;;;383.48;365.55;;;19.00;99.90;;;19.36;100.00;101481.88;4871327;29;20204;-60
2022/05/20 06:10:45;;;;;;;375.05;358.13;;;19.10;99.90;;;19.40;100.00;101464.84;4833762;29;20228;-58
2022/05/20 06:13:21;;;;;;;386.88;368.92;;;19.20;99.90;;;19.47;100.00;101441.53;4893239;29;20209;-60
2022/05/20 06:15:49;;;;;;;383.25;365.63;;;;;;;19.76;100.00;101444.81;4885264;29;20216;-61
2022/05/20 06:18:17;;;;;;;389.25;372.00;;;;;;;19.91;100.00;101441.03;4892921;29;20239;-60
2022/05/20 06:20:46;;;;;;;414.17;393.00;;;;;;;19.94;100.00;101427.56;4903263;29;20254;-61
2022/05/20 06:23:14;;;;;;;414.67;395.17;;;19.60;99.90;;;20.03;100.00;101416.72;4876123;29;20307;-61
2022/05/20 06:25:42;;;;;;;403.92;385.33;;;19.70;99.90;;;20.04;100.00;101398.78;4875568;29;20213;-61
2022/05/20 06:28:30;;;;;;;414.05;394.52;;;19.90;99.90;;;20.25;100.00;101409.22;4880021;29;20225;-61
2022/05/20 06:31:05;;;;;;;445.77;424.40;;;20.00;99.90;;;20.14;100.00;101373.56;4889317;29;20252;-61
2022/05/20 06:33:34;;;;;;;436.23;415.55;;;20.00;99.90;;;20.35;100.00;101380.41;4886923;29;20205;-61
2022/05/20 06:41:36;;;;;;;427.05;406.95;;;20.10;99.90;;;20.37;100.00;101335.59;4879563;29;20219;-61
2022/05/20 06:44:04;;;;;;;434.65;413.85;;;20.30;99.90;;;20.59;100.00;101341.53;4895174;29;20237;-61
2022/05/20 06:46:33;;;;;;;428.30;407.92;;;20.40;99.90;;;20.81;100.00;101355.50;4874570;29;20208;-61
2022/05/20 06:49:02;;;;;;;419.73;399.60;;;20.40;99.90;;;20.91;100.00;101335.59;4885990;29;20205;-60
2022/05/20 06:51:37;;;;;;;425.42;403.08;;;20.70;99.90;;;20.98;100.00;101319.28;4872429;29;20291;-61
2022/05/20 06:54:09;;;;;;;407.20;387.67;;;20.70;99.90;;;21.03;100.00;101303.94;4870809;29;20221;-61
2022/05/20 06:56:38;;;;;;;428.88;408.10;;;20.90;99.90;;;21.15;100.00;101316.25;4874658;29;20228;-63
2022/05/20 06:59:07;;;;;;;396.40;376.63;;;21.10;99.90;;;21.34;100.00;101323.06;4856199;29;20247;-62
2022/05/20 07:01:42;;;;;;;420.15;398.00;;;;;;;21.15;100.00;101262.47;4872601;29;20232;-61
2022/05/20 07:04:30;;;;;;;409.05;389.15;;;;;;;21.35;100.00;101276.41;4891412;29;20236;-61
2022/05/20 07:07:01;;;;;;;413.00;392.80;;;21.40;99.90;;;21.43;100.00;101261.91;4887928;29;20212;-61
2022/05/20 07:09:30;;;;;;;436.77;415.27;;;21.60;99.90;;;21.92;100.00;101281.34;4890334;29;20251;-61
2022/05/20 07:11:58;;;;;;;424.67;403.90;;;21.90;99.90;;;22.00;100.00;101230.88;4890595;29;20217;-60
2022/05/20 07:14:27;;;;;;;425.58;404.55;;;22.10;99.90;;;22.10;100.00;101247.72;4909641;29;20208;-61
2022/05/20 07:16:55;;;;;;;410.05;389.73;;;22.20;99.90;;;22.23;100.00;101241.13;4897060;29;20212;-61
2022/05/20 07:19:23;;;;;;;419.10;397.63;;;22.50;99.90;;;22.30;100.00;101228.38;4880236;29;20228;-62
2022/05/20 07:21:51;;;;;;;420.80;400.55;;;22.60;99.90;;;22.43;100.00;101216.34;4883932;29;20216;-60
2022/05/20 07:24:19;;;;;;;426.75;405.50;;;22.80;99.90;;;22.61;100.00;101213.13;4875022;29;20217;-61
2022/05/20 07:26:47;;;;;;;422.67;401.23;;;;;;;22.68;100.00;101193.16;4870814;29;20693;-61
2022/05/20 07:29:15;;;;;;;386.95;367.38;;;23.20;99.90;;;22.87;100.00;101203.44;4883275;29;20604;-60
2022/05/20 07:31:44;;;;;;;380.85;361.25;;;;;;;22.50;100.00;101157.75;4878046;29;20211;-61
2022/05/20 07:34:12;;;;;;;396.10;375.75;;;23.40;99.90;;;23.07;100.00;101210.94;4867812;29;20211;-61
2022/05/20 07:36:41;;;;;;;379.42;360.10;;;;;;;22.78;100.00;101169.50;4880800;29;20228;-62
2022/05/20 07:39:09;;;;;;;384.33;364.40;;;;;;;22.99;100.00;101170.69;4889335;29;20228;-62
2022/05/20 07:41:37;;;;;;;391.25;371.13;;;;;;;23.18;100.00;101162.91;4877952;29;20212;-61
2022/05/20 07:44:06;;;;;;;386.15;366.13;;;23.60;99.90;;;23.26;100.00;101153.66;4890194;29;20739;-61
2022/05/20 07:46:34;;;;;;;394.73;373.02;;;;;;;23.39;100.00;101121.75;4896466;29;20211;-61
2022/05/20 07:49:02;;;;;;;371.73;352.00;;;23.60;99.90;;;23.38;100.00;101136.16;4890622;29;20212;-61
2022/05/20 07:51:32;;;;;;;374.52;352.98;;;23.90;99.90;;;23.52;100.00;101125.84;4904391;29;20212;-62
2022/05/20 07:54:10;;;;;;;386.67;364.98;;;24.10;99.90;;;23.33;100.00;101081.47;4884539;29;20205;-62
2022/05/20 07:56:53;;;;;;;386.67;366.42;;;24.10;99.90;;;23.62;100.00;101102.13;4890947;29;20218;-63
2022/05/20 07:59:50;;;;;;;389.67;369.10;;;24.20;99.90;;;23.26;100.00;101045.69;4853065;29;20228;-60
2022/05/20 08:02:23;;;;;;;386.60;366.48;;;23.70;99.90;;;23.09;100.00;101049.88;4889923;29;20570;-60
2022/05/20 08:05:01;;;;;;;394.90;373.88;;;23.50;99.90;;;23.23;100.00;101080.00;4893744;29;20236;-58
2022/05/20 08:07:33;;;;;;;391.23;370.58;;;;;;;23.24;100.00;101044.88;4892102;29;20211;-60
2022/05/20 08:10:07;;;;;;;404.38;383.10;;;23.90;99.90;;;23.42;100.00;101064.97;4876134;29;20232;-56
2022/05/20 08:12:35;;;;;;;411.85;389.30;;;23.70;99.90;;;23.56;100.00;101080.75;4875307;29;20219;-59
2022/05/20 08:15:05;;;;;;;423.90;400.92;;;23.90;99.90;;;24.02;100.00;101092.63;4888720;29;20204;-61
2022/05/20 08:17:39;;;;;;;424.02;401.23;;;24.00;99.90;;;23.97;100.00;101065.78;4885921;29;20204;-59
2022/05/20 08:20:16;;;;;;;519.40;490.95;;;24.70;99.90;;;25.00;100.00;101071.81;4874773;29;20226;-61
2022/05/20 08:22:44;;;;;;;547.05;516.42;;;25.20;99.90;;;24.49;100.00;100989.03;4860242;29;20208;-62
2022/05/20 08:25:12;;;;;;;597.90;564.00;;;;;;;24.89;100.00;100992.84;4895557;29;20574;-57
2022/05/20 08:27:40;;;;;;;596.25;562.72;;;25.60;99.90;;;24.99;100.00;101017.75;4876555;29;20246;-61
2022/05/20 08:30:14;;;;;;;577.95;545.50;;;25.70;99.90;;;25.18;100.00;101049.38;4902361;29;20236;-61
2022/05/20 08:32:43;;;;;;;558.00;523.85;;;25.80;99.90;;;24.81;100.00;100971.53;4901725;29;20220;-58
2022/05/20 08:35:12;;;;;;;490.42;462.75;;;25.90;99.90;;;25.10;100.00;100994.69;4896457;29;20216;-61
2022/05/20 08:37:43;;;;;;;489.85;461.90;;;25.80;99.90;;;25.54;100.00;100997.31;4881126;29;20204;-59
2022/05/20 08:40:19;;;;;;;501.92;472.90;;;26.20;99.90;;;25.61;100.00;100938.34;4875695;29;20232;-59
2022/05/20 08:42:49;;;;;;;454.70;429.70;;;26.20;99.90;;;25.62;100.00;100967.19;4889392;29;20684;-59
2022/05/20 08:45:21;;;;;;;485.95;456.80;;;26.40;99.90;;;25.94;100.00;100977.47;4883376;29;20246;-60
2022/05/20 08:47:51;;;;;;;423.13;398.38;;;26.50;99.90;;;25.04;100.00;100847.94;4877319;29;20305;-61
2022/05/20 08:50:44;;;;;;;425.35;399.92;;;26.50;99.90;;;25.83;100.00;100949.97;4898446;29;20223;-62
2022/05/20 08:53:21;;;;;;;444.75;418.70;;;26.70;99.90;;;25.90;100.00;100899.09;4893125;29;20203;-61
2022/05/20 08:55:49;;;;;;;461.23;433.58;;;;;;;26.43;100.00;100889.31;4878568;29;20230;-61
2022/05/20 08:58:23;;;;;;;473.13;444.38;;;27.00;99.90;;;26.62;100.00;100869.41;4882652;29;20214;-62
2022/05/20 09:00:52;;;;;;;459.08;431.75;;;27.10;99.90;;;26.65;100.00;100825.84;4875337;29;20235;-62
2022/05/20 09:03:22;;;;;;;458.83;430.95;;;27.50;99.90;;;27.25;99.99;100861.63;4873276;29;20693;-62
2022/05/20 09:06:07;;;;;;;502.80;472.83;;;27.60;99.90;;;26.92;100.00;100804.53;4872651;29;20215;-61
2022/05/20 09:08:36;;;;;;;446.23;420.15;;;27.90;99.90;;;26.97;99.60;100797.94;4875188;29;20200;-60
2022/05/20 09:11:13;;;;;;;438.08;411.85;;;27.90;99.90;;;27.22;100.00;100821.06;4895176;29;20234;-62
2022/05/20 09:16:31;;;;;;;427.90;401.95;;;28.10;99.90;;;27.60;97.24;100768.28;4894287;29;20211;-62
2022/05/20 09:19:09;;;;;;;437.17;408.52;;;28.20;99.90;;;27.66;95.58;100743.47;4877882;29;20216;-62
2022/05/20 09:21:44;;;;;;;408.05;383.65;;;28.40;99.90;;;27.95;93.32;100740.91;4882126;29;20217;-62
2022/05/20 09:24:23;;;;;;;397.65;373.48;;;28.50;99.90;;;27.67;93.67;100679.13;4880965;29;20219;-62
2022/05/20 09:27:06;;;;;;;421.42;396.27;;;28.50;99.90;;;28.16;92.79;100720.63;4874225;29;20215;-62
2022/05/20 09:29:55;;;;;;;416.33;391.55;;;28.70;99.90;;;28.04;93.26;100684.16;4891078;29;20236;-62
2022/05/20 09:32:45;;;;;;;435.98;409.40;;;28.60;99.90;;;27.93;91.34;100621.41;4881834;29;20219;-61
2022/05/20 09:35:19;;;;;;;467.45;438.15;;;28.90;99.90;;;28.23;90.94;100626.84;4877821;29;20216;-62
2022/05/20 09:37:51;;;;;;;433.63;406.55;;;28.80;99.90;;;28.10;93.68;100617.66;4898750;29;20210;-62
2022/05/20 09:40:34;;;;;;;443.98;416.63;;;29.20;99.90;;;28.60;90.74;100605.53;4890671;29;20228;-62
2022/05/20 09:43:22;;;;;;;499.48;468.30;;;29.40;99.90;;;28.47;89.98;100559.19;4871007;29;20220;-62
2022/05/20 09:45:51;;;;;;;513.40;481.05;;;29.70;99.90;;;28.93;91.65;100616.19;4891053;29;20220;-61
2022/05/20 09:48:56;;;;;;;418.80;392.42;;;29.80;99.90;;;29.16;89.69;100599.22;4886652;29;20208;-62
2022/05/20 09:51:38;;;;;;;364.80;342.17;;;29.70;99.90;;;28.84;91.20;100546.88;4875214;29;20204;-62
2022/05/20 09:54:32;;;;;;;419.25;393.52;;;29.70;99.90;;;28.73;90.58;100518.56;4891757;29;20215;-62
2022/05/20 09:57:27;;;;;;;454.58;426.42;;;29.70;99.90;;;29.28;89.92;100570.28;4899520;29;20223;-62
2022/05/20 10:00:10;;;;;;;519.88;487.13;;;29.90;99.90;;;29.03;88.02;100497.53;4895556;29;20242;-63
2022/05/20 10:03:23;;;;;;;560.97;524.90;;;30.00;99.90;;;28.91;85.95;100441.16;4845279;29;20212;-62
2022/05/20 10:06:19;;;;;;;464.55;435.02;;;30.10;99.90;;;29.49;88.04;100517.13;4891801;29;20716;-61
2022/05/20 10:09:05;;;;;;;512.72;480.38;;;30.30;99.90;;;29.44;86.61;100455.75;4872803;29;20209;-63
2022/05/20 10:11:58;;;;;;;535.78;501.55;;;30.30;99.90;;;30.09;87.21;100507.56;4857586;29;20212;-62
2022/05/20 10:14:40;;;;;;;449.45;421.50;;;30.60;99.90;;;29.36;83.43;100365.47;4874060;29;20228;-62
2022/05/20 10:17:29;;;;;;;422.95;395.98;;;30.40;99.90;;;29.19;84.44;100355.75;4887066;29;20208;-61
2022/05/20 10:20:18;;;;;;;482.05;452.02;;;30.30;99.90;;;29.77;84.38;100417.94;4891456;29;20709;-63
2022/05/20 10:22:45;;;;;;;411.17;385.13;;;30.10;99.90;;;29.33;83.23;100327.53;4890709;29;20216;-62
2022/05/20 10:25:26;;;;;;;360.55;337.85;;;30.20;99.90;;;28.89;83.72;100249.84;4876504;29;20231;-62
2022/05/20 10:32:34;;;;;;;353.92;331.27;;;29.90;99.90;;;28.81;86.06;100283.00;4873578;29;20245;-62
2022/05/20 10:34:03;;;;;;;343.27;322.30;;;30.30;99.90;;;30.48;85.44;100439.19;4906759;29;20204;-62
2022/05/20 10:37:01;;;;;;;341.73;320.10;;;30.40;99.90;;;29.43;85.05;100258.72;4880935;29;20208;-62
2022/05/20 10:40:01;;;;;;;405.85;381.13;;;30.30;99.90;;;29.82;85.89;100319.47;4890204;29;20232;-62